Time;durP1;ratioP1;P1;durP2;ratioP2;P2;SDS_P1;SDS_P2;PMS_P1;PMS_P2;Temp;Humidity;BMP_temperature;BMP_pressure;BME280_temperature;BME280_humidity;BME280_pressure;Samples;Min_cycle;Max_cycle;Signal;HPM_P1;HPM_P2
2022/03/09 00:00:31;;;;;;;0.40;0.40;;;0.40;57.40;;;;;;4994445;28;20188;-68
2022/03/09 00:02:57;;;;;;;0.67;0.67;;;0.40;56.50;;;;;;4994700;28;20200;-68
2022/03/09 00:05:22;;;;;;;0.83;0.83;;;0.60;56.80;;;;;;4994427;28;20242;-67
2022/03/09 00:07:48;;;;;;;0.40;0.40;;;0.70;57.00;;;;;;4994630;28;20251;-67
2022/03/09 00:10:14;;;;;;;0.50;0.50;;;0.80;56.80;;;;;;4994478;28;20168;-67
2022/03/09 00:12:39;;;;;;;0.40;0.40;;;0.80;56.80;;;;;;4994340;28;20292;-67
2022/03/09 00:15:05;;;;;;;0.60;0.60;;;0.90;56.80;;;;;;4994315;28;20517;-67
2022/03/09 00:17:31;;;;;;;0.60;0.60;;;0.80;57.30;;;;;;4994430;28;20258;-68
2022/03/09 00:19:57;;;;;;;0.53;0.53;;;0.70;57.80;;;;;;4994276;28;20203;-67
2022/03/09 00:22:22;;;;;;;0.47;0.47;;;0.60;58.10;;;;;;4994364;28;20176;-66
2022/03/09 00:24:48;;;;;;;0.50;0.50;;;0.60;58.40;;;;;;4994634;28;20214;-68
2022/03/09 00:27:13;;;;;;;0.60;0.60;;;0.50;58.70;;;;;;4993841;28;20190;-67
2022/03/09 00:29:39;;;;;;;0.70;0.70;;;0.50;59.00;;;;;;4994246;28;20596;-67
2022/03/09 00:32:06;;;;;;;0.60;0.60;;;0.50;59.40;;;;;;4994066;28;20172;-68
2022/03/09 00:34:32;;;;;;;0.43;0.43;;;0.50;59.30;;;;;;4994257;28;20203;-68
2022/03/09 00:36:58;;;;;;;0.47;0.47;;;0.50;59.40;;;;;;4994133;28;20172;-67
2022/03/09 00:39:24;;;;;;;0.50;0.50;;;0.50;59.60;;;;;;4994167;28;20173;-67
2022/03/09 00:41:49;;;;;;;0.50;0.50;;;0.50;59.50;;;;;;4993826;28;20172;-68
2022/03/09 00:44:15;;;;;;;0.53;0.53;;;0.60;59.20;;;;;;4993244;28;20517;-67
2022/03/09 00:46:41;;;;;;;0.43;0.43;;;0.60;59.00;;;;;;4994140;28;20179;-67
2022/03/09 00:49:06;;;;;;;0.40;0.40;;;0.60;59.30;;;;;;4994170;28;20194;-68
2022/03/09 00:51:32;;;;;;;0.40;0.40;;;0.60;59.70;;;;;;4976316;28;20176;-67
2022/03/09 00:53:58;;;;;;;0.40;0.40;;;0.60;60.10;;;;;;4993891;28;20338;-67
2022/03/09 00:56:24;;;;;;;0.40;0.40;;;0.50;60.30;;;;;;4994164;28;20407;-67
2022/03/09 00:58:49;;;;;;;0.50;0.50;;;0.50;60.20;;;;;;4993935;28;20932;-67
2022/03/09 01:01:15;;;;;;;0.40;0.40;;;0.50;60.50;;;;;;4993816;28;20183;-68
2022/03/09 01:03:42;;;;;;;0.70;0.70;;;0.50;61.50;;;;;;4993790;28;20208;-67
2022/03/09 01:06:07;;;;;;;0.40;0.40;;;0.40;61.80;;;;;;4993810;28;20195;-67
2022/03/09 01:08:33;;;;;;;0.60;0.60;;;0.40;61.80;;;;;;4993791;28;20180;-68
2022/03/09 01:10:59;;;;;;;0.50;0.50;;;0.50;62.20;;;;;;4993556;28;20183;-68
2022/03/09 01:13:25;;;;;;;4.77;1.80;;;0.50;61.80;;;;;;4993883;28;20180;-67
2022/03/09 01:15:50;;;;;;;0.50;0.50;;;0.50;62.30;;;;;;4993775;28;20231;-67
2022/03/09 01:18:16;;;;;;;0.57;0.57;;;0.40;62.10;;;;;;4993899;28;20221;-67
2022/03/09 01:20:42;;;;;;;0.60;0.60;;;0.40;61.80;;;;;;4993623;28;20415;-68
2022/03/09 01:23:08;;;;;;;0.47;0.47;;;0.40;61.40;;;;;;4993979;28;20200;-67
2022/03/09 01:25:33;;;;;;;0.50;0.50;;;0.50;61.10;;;;;;4994094;28;20530;-67
2022/03/09 01:27:59;;;;;;;0.50;0.50;;;0.50;61.40;;;;;;4993880;28;20173;-68
2022/03/09 01:30:25;;;;;;;0.50;0.50;;;0.50;61.60;;;;;;4993665;28;20665;-68
2022/03/09 01:32:51;;;;;;;0.57;0.57;;;0.50;61.90;;;;;;4993824;28;20682;-67
2022/03/09 01:35:17;;;;;;;0.50;0.50;;;0.40;61.90;;;;;;4993507;28;20198;-67
2022/03/09 01:37:45;;;;;;;0.50;0.50;;;0.30;62.80;;;;;;4994005;28;20180;-67
2022/03/09 01:40:12;;;;;;;0.47;0.47;;;0.40;63.60;;;;;;4993571;28;20568;-67
2022/03/09 01:42:37;;;;;;;0.50;0.50;;;0.40;63.40;;;;;;4993520;28;20254;-67
2022/03/09 01:45:05;;;;;;;0.40;0.40;;;0.40;63.20;;;;;;4993403;28;20602;-67
2022/03/09 01:47:31;;;;;;;0.45;0.45;;;0.40;63.20;;;;;;4993550;28;20181;-68
2022/03/09 01:49:56;;;;;;;0.50;0.50;;;0.40;63.60;;;;;;4993207;28;20187;-67
2022/03/09 01:52:23;;;;;;;0.50;0.50;;;0.40;63.80;;;;;;4993435;28;20207;-67
2022/03/09 01:54:52;;;;;;;0.40;0.40;;;0.30;64.20;;;;;;4995188;28;20195;-67
2022/03/09 01:57:18;;;;;;;0.50;0.50;;;0.20;65.10;;;;;;4996945;28;20168;-67
2022/03/09 01:59:44;;;;;;;0.40;0.40;;;0.20;66.00;;;;;;4996896;28;20164;-68
2022/03/09 02:02:09;;;;;;;0.50;0.50;;;0.20;66.60;;;;;;4996818;28;20585;-67
2022/03/09 02:04:36;;;;;;;0.60;0.60;;;0.20;67.10;;;;;;4996803;28;20721;-67
2022/03/09 02:07:01;;;;;;;0.45;0.45;;;0.20;67.60;;;;;;4996911;28;20251;-67
2022/03/09 02:09:43;;;;;;;0.40;0.40;;;0.20;67.30;;;;;;4996710;28;20264;-67
2022/03/09 02:12:11;;;;;;;0.40;0.40;;;0.30;67.70;;;;;;4996361;28;20681;-68
2022/03/09 02:14:41;;;;;;;4.32;1.65;;;0.30;66.90;;;;;;4996495;28;20251;-68
2022/03/09 02:17:16;;;;;;;0.57;0.57;;;0.30;67.10;;;;;;4996460;28;20214;-67
2022/03/09 02:19:43;;;;;;;0.60;0.60;;;0.20;67.10;;;;;;4996744;28;20514;-67
2022/03/09 02:22:09;;;;;;;0.60;0.60;;;0.20;67.30;;;;;;4996348;28;20176;-68
2022/03/09 02:24:34;;;;;;;0.40;0.40;;;0.20;67.90;;;;;;4996218;28;20211;-68
2022/03/09 02:27:00;;;;;;;2.40;1.03;;;0.20;67.40;;;;;;4996486;28;20179;-67
2022/03/09 02:29:26;;;;;;;0.60;0.60;;;0.30;67.50;;;;;;4996399;28;20168;-68
2022/03/09 02:31:51;;;;;;;1.27;1.27;;;0.30;67.80;;;;;;4996019;28;20418;-67
2022/03/09 02:34:17;;;;;;;0.70;0.70;;;0.20;68.70;;;;;;4996161;28;20252;-67
2022/03/09 02:36:43;;;;;;;1.77;1.67;;;0.20;69.00;;;;;;4996249;28;20199;-67
2022/03/09 02:39:08;;;;;;;0.40;0.40;;;0.10;69.30;;;;;;4996363;28;20222;-67
2022/03/09 02:41:34;;;;;;;0.53;0.53;;;0.20;69.90;;;;;;4996096;28;20173;-68
2022/03/09 02:44:01;;;;;;;0.60;0.60;;;0.20;70.30;;;;;;4995884;28;20266;-67
2022/03/09 02:46:26;;;;;;;0.50;0.50;;;0.10;70.60;;;;;;4995946;28;20247;-67
2022/03/09 02:48:53;;;;;;;0.50;0.50;;;0.10;71.00;;;;;;4995990;28;20272;-67
2022/03/09 02:51:18;;;;;;;0.52;0.52;;;0.10;71.40;;;;;;4995787;28;20187;-67
2022/03/09 02:53:44;;;;;;;0.67;0.67;;;0.10;71.40;;;;;;4995870;28;20204;-68
2022/03/09 02:56:10;;;;;;;0.40;0.40;;;0.10;71.40;;;;;;4995819;28;20419;-68
2022/03/09 02:58:35;;;;;;;0.50;0.50;;;0.20;71.30;;;;;;4995947;28;20534;-67
2022/03/09 03:01:01;;;;;;;0.60;0.60;;;0.30;71.50;;;;;;4995608;28;20182;-67
2022/03/09 03:03:26;;;;;;;1.83;1.73;;;0.30;70.90;;;;;;4995703;28;20302;-68
2022/03/09 03:05:52;;;;;;;0.60;0.60;;;0.40;70.60;;;;;;4994869;28;20260;-67
2022/03/09 03:08:18;;;;;;;0.60;0.60;;;0.40;69.90;;;;;;4995664;28;20169;-67
2022/03/09 03:10:43;;;;;;;0.53;0.53;;;0.40;69.60;;;;;;4995484;28;20629;-68
2022/03/09 03:13:09;;;;;;;0.50;0.50;;;0.30;69.90;;;;;;4995518;28;20256;-68
2022/03/09 03:15:34;;;;;;;0.50;0.50;;;0.40;70.30;;;;;;4995390;28;20179;-67
2022/03/09 03:18:01;;;;;;;0.60;0.60;;;0.40;70.50;;;;;;4995412;28;20172;-68
2022/03/09 03:20:27;;;;;;;0.68;0.68;;;0.40;70.60;;;;;;4995370;28;20164;-67
2022/03/09 03:22:52;;;;;;;0.50;0.50;;;0.30;70.90;;;;;;4995182;28;20707;-67
2022/03/09 03:25:18;;;;;;;0.40;0.40;;;0.30;71.30;;;;;;4995221;28;20498;-67
2022/03/09 03:27:44;;;;;;;0.80;0.80;;;0.30;71.80;;;;;;4995389;28;20576;-67
2022/03/09 03:30:10;;;;;;;0.53;0.53;;;0.30;71.60;;;;;;4995109;28;20408;-67
2022/03/09 03:32:36;;;;;;;0.40;0.40;;;0.30;72.00;;;;;;4995150;28;20818;-67
2022/03/09 03:35:02;;;;;;;0.60;0.60;;;0.20;71.60;;;;;;4995035;28;20224;-67
2022/03/09 03:37:27;;;;;;;0.40;0.40;;;0.20;71.30;;;;;;4995087;28;20173;-68
2022/03/09 03:39:53;;;;;;;0.50;0.50;;;0.20;72.00;;;;;;4994934;28;20200;-66
2022/03/09 03:42:19;;;;;;;0.50;0.50;;;0.20;71.80;;;;;;4995084;28;20673;-67
2022/03/09 03:44:44;;;;;;;0.50;0.50;;;0.20;71.70;;;;;;4994741;28;20291;-67
2022/03/09 03:47:10;;;;;;;0.50;0.50;;;0.20;72.20;;;;;;4994836;28;20180;-67
2022/03/09 03:49:36;;;;;;;0.60;0.60;;;0.30;72.70;;;;;;4995183;28;20646;-68
2022/03/09 03:52:01;;;;;;;0.60;0.60;;;0.20;72.90;;;;;;4994562;28;20184;-68
2022/03/09 03:54:27;;;;;;;0.50;0.50;;;0.20;73.30;;;;;;4994695;28;20195;-67
2022/03/09 03:56:53;;;;;;;0.40;0.40;;;0.20;74.10;;;;;;4994709;28;20443;-67
2022/03/09 03:59:18;;;;;;;0.50;0.50;;;0.20;74.10;;;;;;4994824;28;20179;-67
2022/03/09 04:01:44;;;;;;;0.40;0.40;;;0.20;74.30;;;;;;4994427;28;20658;-68
2022/03/09 04:04:09;;;;;;;0.80;0.80;;;0.10;75.00;;;;;;4994413;28;20211;-67
2022/03/09 04:06:35;;;;;;;0.50;0.50;;;0.10;75.40;;;;;;4994732;28;20172;-67
2022/03/09 04:09:01;;;;;;;0.40;0.40;;;0.10;76.20;;;;;;4994592;28;20172;-67
2022/03/09 04:11:27;;;;;;;0.50;0.50;;;0.10;75.10;;;;;;4994115;28;20208;-68
2022/03/09 04:13:52;;;;;;;0.40;0.40;;;0.10;75.10;;;;;;4994349;28;20202;-67
2022/03/09 04:16:18;;;;;;;0.40;0.40;;;0.10;74.70;;;;;;4994370;28;20595;-68
2022/03/09 04:18:45;;;;;;;0.50;0.50;;;0.20;74.80;;;;;;4994355;28;20203;-67
2022/03/09 04:21:10;;;;;;;0.77;0.77;;;0.20;75.10;;;;;;4994089;28;20199;-68
2022/03/09 04:23:36;;;;;;;0.57;0.57;;;0.10;75.30;;;;;;4994263;28;20200;-67
2022/03/09 04:26:02;;;;;;;0.40;0.40;;;0.10;74.80;;;;;;4994207;28;20627;-67
2022/03/09 04:28:28;;;;;;;0.50;0.50;;;0.10;75.20;;;;;;4994354;28;20528;-67
2022/03/09 04:30:53;;;;;;;0.40;0.40;;;0.10;75.90;;;;;;4994006;28;20172;-67
2022/03/09 04:33:19;;;;;;;0.50;0.50;;;0.10;82.60;;;;;;4994649;28;20230;-68
2022/03/09 04:35:45;;;;;;;0.60;0.60;;;0.10;76.40;;;;;;4994099;28;20172;-67
2022/03/09 04:38:10;;;;;;;0.60;0.60;;;0.20;75.70;;;;;;4994214;28;20432;-67
2022/03/09 04:40:36;;;;;;;0.60;0.60;;;0.10;75.40;;;;;;4994012;28;20168;-67
2022/03/09 04:43:02;;;;;;;0.60;0.60;;;0.10;76.20;;;;;;4994015;28;20195;-67
2022/03/09 04:45:27;;;;;;;0.80;0.80;;;0.10;76.40;;;;;;4993949;28;20195;-67
2022/03/09 04:47:53;;;;;;;0.50;0.50;;;0.00;76.60;;;;;;4994002;28;20198;-67
2022/03/09 04:50:18;;;;;;;0.50;0.50;;;-0.10;77.30;;;;;;4993865;28;20164;-67
2022/03/09 04:52:44;;;;;;;0.60;0.60;;;-0.20;77.30;;;;;;4994083;28;20537;-67
2022/03/09 04:55:10;;;;;;;0.60;0.60;;;-0.20;77.30;;;;;;4993861;28;20196;-67
2022/03/09 04:57:37;;;;;;;0.60;0.60;;;-0.20;77.30;;;;;;4976599;28;20638;-67
2022/03/09 05:00:06;;;;;;;0.65;0.65;;;-0.10;77.90;;;;;;4993674;28;20176;-67
2022/03/09 05:02:32;;;;;;;0.50;0.50;;;-0.10;77.60;;;;;;4993741;28;20191;-68
2022/03/09 05:04:57;;;;;;;0.60;0.60;;;-0.10;77.60;;;;;;4993756;28;20194;-67
2022/03/09 05:07:23;;;;;;;2.70;2.40;;;-0.10;78.00;;;;;;4994027;28;20247;-67
2022/03/09 05:09:48;;;;;;;1.23;1.23;;;-0.10;77.70;;;;;;4993967;28;20171;-67
2022/03/09 05:12:14;;;;;;;0.50;0.50;;;-0.10;77.50;;;;;;4976064;28;20557;-67
2022/03/09 05:14:40;;;;;;;0.60;0.60;;;0.00;77.80;;;;;;4993678;28;20196;-67
2022/03/09 05:17:05;;;;;;;0.50;0.50;;;0.00;77.10;;;;;;4993696;28;20203;-68
2022/03/09 05:19:31;;;;;;;0.80;0.80;;;0.10;77.10;;;;;;4993950;28;20642;-67
2022/03/09 05:21:56;;;;;;;0.50;0.50;;;0.00;77.10;;;;;;4993607;28;20537;-67
2022/03/09 05:24:23;;;;;;;0.50;0.50;;;0.00;77.60;;;;;;4993581;28;20712;-67
2022/03/09 05:26:48;;;;;;;0.50;0.50;;;0.00;78.00;;;;;;4993584;28;20161;-66
2022/03/09 05:29:14;;;;;;;1.43;1.43;;;-0.10;78.40;;;;;;4994774;28;20176;-67
2022/03/09 05:31:41;;;;;;;0.68;0.68;;;-0.10;78.80;;;;;;4997226;28;20259;-67
2022/03/09 05:34:07;;;;;;;0.40;0.40;;;-0.10;78.50;;;;;;4997304;28;20196;-67
2022/03/09 05:36:32;;;;;;;0.50;0.50;;;-0.10;78.30;;;;;;4997277;28;20168;-67
2022/03/09 05:38:58;;;;;;;0.67;0.67;;;0.00;77.90;;;;;;4997379;28;20172;-67
2022/03/09 05:41:24;;;;;;;0.53;0.53;;;-0.10;78.10;;;;;;4997200;28;20180;-67
2022/03/09 05:43:52;;;;;;;0.50;0.50;;;0.00;78.30;;;;;;4996856;28;20208;-67
2022/03/09 05:46:18;;;;;;;0.60;0.60;;;0.00;78.10;;;;;;4997284;28;20300;-67
2022/03/09 05:48:43;;;;;;;0.60;0.60;;;-0.10;77.80;;;;;;4997161;28;20244;-67
2022/03/09 05:51:10;;;;;;;0.50;0.50;;;-0.20;77.50;;;;;;4996749;28;20203;-67
2022/03/09 05:53:35;;;;;;;0.52;0.52;;;-0.20;77.60;;;;;;4997067;28;20192;-67
2022/03/09 05:56:01;;;;;;;0.70;0.70;;;-0.10;78.30;;;;;;4997055;28;20180;-67
2022/03/09 05:58:27;;;;;;;0.60;0.60;;;-0.10;78.50;;;;;;4996885;28;20172;-68
2022/03/09 06:00:52;;;;;;;1.07;1.07;;;0.00;78.40;;;;;;4996712;28;20176;-68
2022/03/09 06:03:18;;;;;;;0.53;0.53;;;0.20;85.60;;;;;;4996954;28;20207;-67
2022/03/09 06:05:43;;;;;;;0.80;0.80;;;0.20;79.10;;;;;;4996724;28;20177;-67
2022/03/09 06:08:09;;;;;;;0.53;0.53;;;0.20;78.90;;;;;;4996866;28;20207;-67
2022/03/09 06:10:34;;;;;;;0.40;0.40;;;0.20;78.60;;;;;;4996606;28;20172;-67
2022/03/09 06:13:00;;;;;;;0.70;0.70;;;0.20;77.40;;;;;;4996529;28;20191;-67
2022/03/09 06:15:26;;;;;;;0.50;0.50;;;0.20;76.10;;;;;;4979044;28;20573;-67
2022/03/09 06:17:51;;;;;;;0.50;0.50;;;0.20;75.80;;;;;;4996822;28;20231;-67
2022/03/09 06:20:19;;;;;;;0.50;0.50;;;0.20;75.10;;;;;;4996444;28;20549;-68
2022/03/09 06:22:46;;;;;;;0.40;0.40;;;0.30;75.70;;;;;;4996530;28;20176;-67
2022/03/09 06:25:14;;;;;;;0.50;0.50;;;0.40;75.80;;;;;;4996339;28;20207;-68
2022/03/09 06:27:51;;;;;;;0.60;0.60;;;0.40;75.00;;;;;;4996372;28;20161;-67
2022/03/09 06:30:17;;;;;;;0.40;0.40;;;0.50;74.20;;;;;;4996323;28;20247;-67
2022/03/09 06:32:45;;;;;;;0.52;0.52;;;0.60;74.60;;;;;;4996399;28;20203;-67
2022/03/09 06:35:11;;;;;;;0.50;0.50;;;0.70;74.60;;;;;;4996848;28;20541;-67
2022/03/09 06:37:37;;;;;;;0.57;0.57;;;0.70;74.70;;;;;;4996270;28;20591;-67
2022/03/09 06:40:04;;;;;;;0.40;0.40;;;0.80;74.70;;;;;;4995353;28;20249;-67
2022/03/09 06:42:30;;;;;;;0.50;0.50;;;0.90;74.10;;;;;;4995422;28;20411;-67
2022/03/09 06:44:57;;;;;;;0.40;0.40;;;0.90;73.20;;;;;;4996029;28;20194;-67
2022/03/09 06:47:23;;;;;;;0.57;0.57;;;1.00;71.80;;;;;;4978382;28;20173;-67
2022/03/09 06:49:49;;;;;;;0.50;0.50;;;1.10;71.40;;;;;;4996128;28;20235;-68
2022/03/09 06:52:14;;;;;;;0.68;0.68;;;1.30;70.60;;;;;;4995849;28;20260;-67
2022/03/09 06:54:40;;;;;;;0.40;0.40;;;1.30;70.00;;;;;;4995765;28;20278;-67
2022/03/09 06:57:06;;;;;;;0.40;0.40;;;1.50;70.00;;;;;;4995853;28;20627;-67
2022/03/09 06:59:31;;;;;;;0.53;0.53;;;1.60;69.00;;;;;;4995800;28;20199;-67
2022/03/09 07:01:57;;;;;;;0.43;0.43;;;1.60;68.60;;;;;;4995545;28;20204;-67
2022/03/09 07:04:22;;;;;;;0.33;0.33;;;1.70;67.00;;;;;;4995662;28;20200;-67
2022/03/09 07:06:48;;;;;;;0.43;0.43;;;1.80;67.30;;;;;;4995566;28;20251;-67
2022/03/09 07:09:14;;;;;;;0.30;0.30;;;1.90;67.00;;;;;;4995789;28;20187;-68
2022/03/09 07:11:41;;;;;;;0.40;0.40;;;1.80;66.70;;;;;;4995327;28;20180;-67
2022/03/09 07:14:07;;;;;;;0.40;0.40;;;2.10;69.00;;;;;;4995505;28;20196;-67
2022/03/09 07:16:33;;;;;;;0.30;0.30;;;2.60;69.20;;;;;;4995391;28;20178;-68
2022/03/09 07:18:59;;;;;;;0.40;0.40;;;3.70;65.80;;;;;;4995500;28;20179;-68
2022/03/09 07:21:25;;;;;;;0.40;0.40;;;5.20;59.50;;;;;;4995165;28;20513;-67
2022/03/09 07:23:51;;;;;;;0.40;0.40;;;7.00;55.50;;;;;;4995147;28;20459;-67
2022/03/09 07:26:16;;;;;;;0.40;0.40;;;8.70;50.80;;;;;;4995294;28;20404;-68
2022/03/09 07:28:42;;;;;;;2.40;2.20;;;9.60;47.90;;;;;;4995217;28;20170;-68
2022/03/09 07:31:08;;;;;;;0.40;0.40;;;10.10;45.20;;;;;;4994941;28;20212;-67
2022/03/09 07:33:34;;;;;;;0.30;0.30;;;10.70;44.10;;;;;;4995135;28;20192;-68
2022/03/09 07:36:00;;;;;;;0.40;0.40;;;11.00;42.20;;;;;;4994986;28;20182;-68
2022/03/09 07:38:27;;;;;;;0.40;0.40;;;11.40;42.10;;;;;;4995190;28;20770;-68
2022/03/09 07:40:53;;;;;;;0.40;0.40;;;12.40;40.30;;;;;;4994857;28;20614;-68
2022/03/09 07:43:19;;;;;;;0.50;0.50;;;14.20;38.10;;;;;;4995024;28;20227;-68
2022/03/09 07:45:45;;;;;;;0.63;0.63;;;14.10;37.40;;;;;;4994940;28;20168;-68
2022/03/09 07:48:11;;;;;;;0.40;0.40;;;14.80;36.30;;;;;;4995022;28;20391;-68
2022/03/09 07:50:37;;;;;;;1.33;1.33;;;15.50;36.10;;;;;;4995167;28;20246;-68
2022/03/09 07:53:06;;;;;;;2.67;2.57;;;16.20;35.00;;;;;;4976982;28;20551;-67
2022/03/09 07:55:32;;;;;;;1.13;0.97;;;16.90;34.20;;;;;;4994609;28;20461;-68
2022/03/09 07:57:58;;;;;;;0.73;0.73;;;17.10;32.70;;;;;;4994733;28;20420;-69
2022/03/09 08:00:24;;;;;;;2.80;2.10;;;17.30;32.90;;;;;;4994467;28;20450;-68
2022/03/09 08:02:49;;;;;;;2.30;2.20;;;17.80;32.10;;;;;;4994691;28;20306;-68
2022/03/09 08:05:16;;;;;;;1.90;0.67;;;18.20;31.50;;;;;;4994681;28;20684;-67
2022/03/09 08:07:43;;;;;;;0.40;0.40;;;18.10;31.40;;;;;;4994700;28;20208;-68
2022/03/09 08:10:09;;;;;;;0.50;0.50;;;18.20;31.10;;;;;;4994544;28;20408;-68
2022/03/09 08:12:35;;;;;;;0.40;0.40;;;18.20;31.00;;;;;;4994422;28;20422;-68
2022/03/09 08:15:02;;;;;;;1.60;1.50;;;18.50;30.70;;;;;;4994303;28;20482;-68
2022/03/09 08:17:28;;;;;;;0.40;0.40;;;18.80;30.50;;;;;;4994519;28;20407;-67
2022/03/09 08:19:53;;;;;;;0.50;0.50;;;18.90;30.20;;;;;;4994124;28;20498;-67
2022/03/09 08:22:21;;;;;;;1.77;1.67;;;18.80;30.80;;;;;;4994281;28;20264;-68
2022/03/09 08:24:47;;;;;;;0.57;0.57;;;18.80;31.20;;;;;;4994119;28;20279;-69
2022/03/09 08:27:12;;;;;;;0.30;0.30;;;19.10;30.60;;;;;;4994477;28;20413;-68
2022/03/09 08:29:38;;;;;;;2.20;2.10;;;19.80;29.80;;;;;;4994143;28;20195;-69
2022/03/09 08:32:04;;;;;;;0.53;0.53;;;20.70;29.40;;;;;;4994182;28;20237;-68
2022/03/09 08:34:29;;;;;;;0.30;0.30;;;21.10;29.60;;;;;;4994248;28;20791;-68
2022/03/09 08:36:55;;;;;;;1.13;1.13;;;21.50;29.60;;;;;;4994123;28;20410;-69
2022/03/09 08:39:21;;;;;;;0.40;0.40;;;21.50;29.50;;;;;;4994097;28;20180;-68
2022/03/09 08:41:46;;;;;;;0.70;0.70;;;21.50;29.20;;;;;;4994027;28;20283;-68
2022/03/09 08:44:12;;;;;;;0.90;0.90;;;21.40;29.20;;;;;;4994013;28;20296;-68
2022/03/09 08:46:38;;;;;;;0.30;0.30;;;21.20;29.50;;;;;;4993982;28;20233;-67
2022/03/09 08:49:03;;;;;;;0.30;0.30;;;21.30;29.70;;;;;;4993940;28;20181;-69
2022/03/09 08:51:29;;;;;;;0.67;0.67;;;21.60;30.00;;;;;;4993444;28;20183;-68
2022/03/09 08:53:54;;;;;;;0.53;0.53;;;22.60;29.50;;;;;;4993956;28;20192;-69
2022/03/09 08:56:21;;;;;;;0.50;0.50;;;22.90;28.80;;;;;;4993956;28;20300;-69
2022/03/09 08:58:47;;;;;;;0.60;0.60;;;23.40;28.70;;;;;;4993885;28;20173;-69
2022/03/09 09:01:13;;;;;;;1.00;0.97;;;24.00;28.10;;;;;;4993744;28;20934;-68
2022/03/09 09:03:39;;;;;;;0.70;0.60;;;24.70;27.70;;;;;;4993929;28;20464;-68
2022/03/09 09:06:05;;;;;;;1.53;1.43;;;24.90;27.20;;;;;;4997888;28;20464;-68
2022/03/09 09:08:30;;;;;;;0.90;0.77;;;24.70;27.30;;;;;;4997915;28;20184;-68
2022/03/09 09:10:56;;;;;;;0.77;0.77;;;25.10;26.70;;;;;;4980026;28;20190;-69
2022/03/09 09:13:22;;;;;;;0.30;0.30;;;25.60;26.40;;;;;;4997890;28;20618;-68
2022/03/09 09:15:49;;;;;;;0.40;0.40;;;25.80;26.60;;;;;;4997605;28;20226;-69
2022/03/09 09:18:15;;;;;;;0.40;0.40;;;26.30;26.10;;;;;;4980144;28;20184;-68
2022/03/09 09:20:41;;;;;;;1.40;1.40;;;26.50;25.70;;;;;;4997502;28;20424;-68
2022/03/09 09:23:06;;;;;;;0.30;0.30;;;26.60;25.70;;;;;;4997571;28;20452;-68
2022/03/09 09:25:32;;;;;;;0.80;0.80;;;26.90;25.50;;;;;;4997391;28;20513;-69
2022/03/09 09:27:58;;;;;;;2.10;2.00;;;27.10;25.10;;;;;;4997601;28;20413;-70
2022/03/09 09:30:26;;;;;;;0.40;0.40;;;27.40;24.30;;;;;;4997389;28;20175;-68
2022/03/09 09:32:52;;;;;;;1.50;1.23;;;27.80;24.20;;;;;;4997349;28;20893;-68
2022/03/09 09:35:18;;;;;;;1.70;1.60;;;27.60;24.20;;;;;;4997316;28;20434;-69
2022/03/09 09:37:43;;;;;;;7.10;1.03;;;26.80;23.70;;;;;;4997403;28;20264;-69
2022/03/09 09:40:11;;;;;;;0.77;0.77;;;25.50;24.40;;;;;;4997289;28;20223;-69
2022/03/09 09:42:37;;;;;;;0.70;0.70;;;24.60;25.30;;;;;;4979786;28;20973;-69
2022/03/09 09:45:04;;;;;;;0.30;0.30;;;24.60;25.30;;;;;;4997279;28;20501;-68
2022/03/09 09:47:31;;;;;;;0.80;0.77;;;24.80;25.00;;;;;;4997088;28;20458;-70
2022/03/09 09:49:57;;;;;;;0.70;0.70;;;24.70;24.60;;;;;;4996909;28;20411;-69
2022/03/09 09:52:27;;;;;;;0.73;0.73;;;24.10;25.00;;;;;;4997113;28;20397;-69
2022/03/09 09:54:55;;;;;;;0.40;0.40;;;24.00;25.20;;;;;;4996906;28;20432;-69
2022/03/09 09:57:21;;;;;;;0.53;0.53;;;24.30;25.00;;;;;;4997188;28;20543;-69
2022/03/09 09:59:47;;;;;;;0.60;0.60;;;24.60;24.80;;;;;;4997332;28;20903;-69
2022/03/09 10:02:13;;;;;;;0.90;0.90;;;23.90;24.50;;;;;;4996707;28;20772;-69
2022/03/09 10:04:40;;;;;;;0.50;0.50;;;24.10;24.70;;;;;;4996857;28;20467;-68
2022/03/09 10:07:08;;;;;;;0.47;0.47;;;24.50;24.50;;;;;;4996877;28;20752;-69
2022/03/09 10:09:36;;;;;;;0.60;0.60;;;24.40;24.00;;;;;;4996956;28;20409;-68
2022/03/09 10:12:03;;;;;;;0.50;0.50;;;24.80;24.50;;;;;;4978951;28;20443;-68
2022/03/09 10:14:37;;;;;;;0.50;0.50;;;24.60;24.40;;;;;;4996384;28;20428;-69
2022/03/09 10:17:20;;;;;;;0.80;0.80;;;24.60;24.60;;;;;;4996622;28;20893;-69
2022/03/09 10:19:50;;;;;;;0.80;0.80;;;24.30;24.60;;;;;;4996719;28;20919;-69
2022/03/09 10:22:24;;;;;;;0.80;0.80;;;25.10;23.90;;;;;;4996368;28;20413;-68
2022/03/09 10:24:52;;;;;;;0.73;0.73;;;25.20;23.90;;;;;;4996307;28;20513;-68
2022/03/09 10:27:44;;;;;;;3.60;3.30;;;24.30;23.80;;;;;;4996436;28;20408;-69
2022/03/09 10:30:13;;;;;;;0.30;0.30;;;23.40;24.20;;;;;;4996330;28;20894;-68
2022/03/09 10:32:58;;;;;;;1.70;1.70;;;22.50;24.80;;;;;;4996484;28;20404;-69
2022/03/09 10:35:30;;;;;;;0.70;0.60;;;22.40;25.30;;;;;;4996329;28;20514;-68
2022/03/09 10:38:00;;;;;;;0.70;0.70;;;23.20;25.10;;;;;;4996115;28;20429;-69
2022/03/09 10:40:27;;;;;;;1.53;1.43;;;23.80;24.70;;;;;;4978531;28;20520;-68
2022/03/09 10:43:19;;;;;;;0.60;0.53;;;23.30;24.40;;;;;;4996061;28;20455;-69
2022/03/09 10:46:10;;;;;;;0.40;0.40;;;23.40;24.80;;;;;;4996302;28;20400;-69
2022/03/09 10:48:54;;;;;;;2.57;2.47;;;23.60;25.10;;;;;;4996086;28;20418;-70
2022/03/09 10:51:34;;;;;;;0.30;0.30;;;23.50;24.70;;;;;;4995787;28;20896;-69
2022/03/09 10:54:03;;;;;;;1.83;1.83;;;23.30;24.40;;;;;;4995844;28;20426;-69
2022/03/09 10:56:29;;;;;;;1.23;1.23;;;22.30;24.90;;;;;;4995886;28;20455;-68
2022/03/09 10:58:55;;;;;;;0.80;0.80;;;22.30;25.00;;;;;;4995880;28;20400;-68
2022/03/09 11:01:23;;;;;;;0.77;0.77;;;22.00;25.10;;;;;;4995686;28;20461;-69
2022/03/09 11:03:49;;;;;;;0.50;0.50;;;20.80;25.90;;;;;;4995806;28;20200;-69
2022/03/09 11:06:17;;;;;;;0.67;0.67;;;20.60;26.00;;;;;;4995633;28;20423;-68
2022/03/09 11:08:42;;;;;;;0.40;0.40;;;21.00;26.00;;;;;;4995831;28;20403;-69
2022/03/09 11:11:09;;;;;;;0.40;0.40;;;21.10;26.10;;;;;;4995420;28;20433;-69
2022/03/09 11:13:36;;;;;;;1.40;1.40;;;20.40;25.80;;;;;;4995674;28;20188;-69
2022/03/09 11:16:03;;;;;;;0.70;0.70;;;19.80;26.70;;;;;;4995558;28;20420;-69
2022/03/09 11:18:31;;;;;;;1.40;1.37;;;19.40;27.10;;;;;;4995344;28;20419;-69
2022/03/09 11:21:00;;;;;;;0.73;0.73;;;18.70;27.60;;;;;;4995252;28;20771;-68
2022/03/09 11:23:27;;;;;;;0.40;0.40;;;16.60;28.80;;;;;;4995639;28;20557;-68
2022/03/09 11:25:59;;;;;;;0.90;0.90;;;16.70;29.20;;;;;;4995184;28;20928;-68
2022/03/09 11:28:29;;;;;;;1.47;0.83;;;15.80;30.00;;;;;;4994784;28;20461;-68
2022/03/09 11:31:01;;;;;;;0.40;0.40;;;15.60;30.60;;;;;;4995006;28;20404;-69
2022/03/09 11:33:41;;;;;;;0.83;0.73;;;15.20;31.80;;;;;;4995273;28;20407;-69
2022/03/09 11:36:36;;;;;;;0.30;0.30;;;15.10;31.40;;;;;;4995261;28;20412;-69
2022/03/09 11:39:04;;;;;;;0.50;0.50;;;15.00;31.90;;;;;;4982425;28;20929;-68
2022/03/09 11:41:36;;;;;;;0.60;0.60;;;14.60;31.40;;;;;;4994876;28;20419;-68
2022/03/09 11:44:19;;;;;;;0.30;0.30;;;14.20;32.20;;;;;;4994977;28;20477;-69
2022/03/09 11:47:00;;;;;;;0.50;0.50;;;13.90;32.30;;;;;;4995001;28;20395;-69
2022/03/09 11:49:32;;;;;;;0.40;0.40;;;13.90;33.10;;;;;;4994966;28;20893;-68
2022/03/09 11:52:17;;;;;;;0.57;0.57;;;14.00;32.40;;;;;;4994858;28;20462;-68
2022/03/09 11:54:44;;;;;;;0.30;0.30;;;14.00;32.70;;;;;;4994712;28;20423;-69
2022/03/09 11:57:11;;;;;;;0.30;0.30;;;14.00;32.70;;;;;;4994728;28;20445;-69
2022/03/09 11:59:37;;;;;;;1.53;1.47;;;13.70;32.80;;;;;;4994762;28;20954;-68
2022/03/09 12:02:09;;;;;;;1.90;1.80;;;13.90;33.40;;;;;;4994636;28;20403;-68
2022/03/09 12:04:42;;;;;;;0.30;0.30;;;13.90;33.20;;;;;;4994480;28;20500;-68
2022/03/09 12:07:09;;;;;;;0.73;0.73;;;13.70;32.70;;;;;;4977194;28;20824;-69
2022/03/09 12:10:06;;;;;;;1.13;1.13;;;13.30;33.20;;;;;;4994508;28;20937;-68
2022/03/09 12:12:33;;;;;;;0.47;0.47;;;12.80;33.80;;;;;;4994417;28;20415;-68
2022/03/09 12:15:07;;;;;;;0.87;0.87;;;12.80;34.60;;;;;;4994467;28;20432;-68
2022/03/09 12:17:36;;;;;;;0.97;0.97;;;12.70;35.30;;;;;;4994402;28;20498;-69
2022/03/09 12:20:31;;;;;;;1.50;1.13;;;12.70;34.70;;;;;;4994387;28;20466;-68
2022/03/09 12:22:57;;;;;;;0.30;0.30;;;12.40;35.20;;;;;;4988943;28;20420;-69
2022/03/09 12:25:45;;;;;;;0.70;0.70;;;12.10;35.40;;;;;;4994102;28;20431;-69
2022/03/09 12:28:25;;;;;;;1.37;1.27;;;12.10;35.60;;;;;;4994298;28;20177;-68
2022/03/09 12:31:03;;;;;;;1.33;1.23;;;12.30;35.80;;;;;;4994004;28;20430;-67
2022/03/09 12:33:39;;;;;;;0.40;0.40;;;12.30;35.60;;;;;;4994299;28;20487;-68
2022/03/09 12:36:11;;;;;;;0.40;0.40;;;12.20;35.30;;;;;;4994245;28;20414;-69
2022/03/09 12:38:48;;;;;;;1.60;1.27;;;11.80;36.10;;;;;;4976578;28;20929;-68
2022/03/09 12:41:33;;;;;;;0.30;0.30;;;12.20;36.50;;;;;;4994175;28;20776;-68
2022/03/09 12:44:03;;;;;;;0.75;0.75;;;12.30;35.50;;;;;;4993994;28;20458;-69
2022/03/09 12:46:30;;;;;;;0.87;0.87;;;12.20;35.20;;;;;;4994312;28;20250;-68
2022/03/09 12:49:08;;;;;;;0.30;0.30;;;12.50;35.60;;;;;;4994175;28;20415;-69
2022/03/09 12:51:35;;;;;;;0.30;0.30;;;12.10;35.70;;;;;;4993931;28;20872;-68
2022/03/09 12:54:01;;;;;;;3.13;1.25;;;11.90;35.90;;;;;;4994054;28;20569;-68